Time;durP1;ratioP1;P1;durP2;ratioP2;P2;SDS_P1;SDS_P2;PMS_P1;PMS_P2;Temp;Humidity;BMP_temperature;BMP_pressure;BME280_temperature;BME280_humidity;BME280_pressure;Samples;Min_cycle;Max_cycle;Signal;HPM_P1;HPM_P2
2021/12/17 00:02:06;;;;;;;;;59.50;44.00;;;;;7.84;70.53;102964.97;5077474;28;51683;-63
2021/12/17 00:04:27;;;;;;;;;54.50;45.25;;;;;7.83;70.79;102962.41;5077684;28;45354;-63
2021/12/17 00:06:53;;;;;;;;;62.50;45.25;;;;;7.84;70.96;102958.88;5076843;28;45396;-63
2021/12/17 00:09:18;;;;;;;;;63.00;43.25;;;;;7.82;71.00;102951.09;5077489;28;52925;-62
2021/12/17 00:11:43;;;;;;;;;62.25;45.75;;;;;7.82;71.04;102956.31;5076889;28;64947;-62
2021/12/17 00:14:10;;;;;;;;;56.25;44.50;;;;;7.83;70.96;102960.66;5076885;28;63129;-63
2021/12/17 00:16:39;;;;;;;;;56.00;43.25;;;;;7.84;70.89;102957.13;5059548;28;45376;-62
2021/12/17 00:49:09;;;;;;;;;52.00;42.25;;;;;7.46;71.42;102950.69;5047833;28;45767;-62
2021/12/17 00:54:08;;;;;;;;;54.50;40.75;;;;;7.46;71.36;102945.47;5056845;28;45407;-63
2021/12/17 00:56:33;;;;;;;;;52.50;40.75;;;;;7.43;71.29;102934.19;5039056;28;45375;-62
2021/12/17 00:58:59;;;;;;;;;48.25;36.25;;;;;7.42;71.22;102937.72;5038796;28;45404;-63
2021/12/17 01:01:25;;;;;;;;;49.25;38.50;;;;;7.39;71.35;102937.84;5055759;28;69336;-62
2021/12/17 01:03:50;;;;;;;;;58.00;42.00;;;;;7.36;71.38;102935.31;5056632;28;45243;-62
2021/12/17 01:06:16;;;;;;;;;56.75;42.00;;;;;7.35;71.58;102935.41;5056593;28;45505;-63
2021/12/17 01:08:41;;;;;;;;;52.50;40.75;;;;;7.34;71.67;102933.69;5056135;28;55637;-63
2021/12/17 01:11:07;;;;;;;;;55.25;43.00;;;;;7.34;71.65;102936.31;5056479;28;45461;-62
2021/12/17 01:13:33;;;;;;;;;55.00;42.00;;;;;7.35;71.81;102938.00;5056584;28;45482;-62
2021/12/17 01:15:58;;;;;;;;;53.50;39.00;;;;;7.34;71.84;102938.91;5056536;28;45558;-64
2021/12/17 01:18:34;;;;;;;;;55.25;43.00;;;;;7.36;71.64;102937.09;5037808;28;45423;-62
2021/12/17 01:24:12;;;;;;;;;55.00;42.75;;;;;7.35;71.51;102925.78;5056269;28;45301;-62
2021/12/17 01:42:37;;;;;;;;;56.75;43.75;;;;;7.30;71.61;102929.47;5056123;28;45221;-62
2021/12/17 01:45:04;;;;;;;;;56.00;41.75;;;;;7.27;71.65;102918.22;5056034;28;45233;-63
2021/12/17 01:47:29;;;;;;;;;54.50;41.50;;;;;7.27;71.61;102927.81;5056158;28;45218;-65
2021/12/17 02:00:50;;;;;;;;;52.00;43.25;;;;;7.16;71.42;102929.94;5040606;28;45812;-64
2021/12/17 02:03:15;;;;;;;;;55.25;42.00;;;;;7.14;71.48;102924.78;5037903;28;68667;-62
2021/12/17 02:05:41;;;;;;;;;54.25;41.50;;;;;7.12;71.43;102921.38;5059484;28;45287;-63
2021/12/17 02:08:07;;;;;;;;;51.25;39.75;;;;;7.11;71.44;102922.28;5059377;28;45514;-62
2021/12/17 02:32:07;;;;;;;;;53.75;41.50;;;;;7.05;71.59;102923.38;5079062;28;46123;-62
2021/12/17 02:37:06;;;;;;;;;51.25;40.75;;;;;7.05;71.64;102922.50;5044745;28;45419;-62
2021/12/17 02:47:30;;;;;;;;;52.75;42.50;;;;;7.05;71.36;102910.28;5079250;28;45344;-62
2021/12/17 02:49:56;;;;;;;;;53.75;41.50;;;;;7.05;71.25;102919.88;5077868;28;69608;-62
2021/12/17 02:52:29;;;;;;;;;53.75;41.25;;;;;7.02;71.40;102915.63;5078847;28;46248;-63
2021/12/17 02:54:55;;;;;;;;;53.50;43.25;;;;;7.01;71.52;102915.66;5044382;28;45911;-62
2021/12/17 02:57:21;;;;;;;;;54.50;44.50;;;;;6.98;71.31;102916.63;5079054;28;45372;-63
2021/12/17 02:59:46;;;;;;;;;56.50;40.75;;;;;6.95;71.43;102906.28;5060030;28;61403;-63
2021/12/17 03:02:12;;;;;;;;;54.75;42.25;;;;;6.94;71.00;102920.25;5077755;28;70542;-64
2021/12/17 03:04:41;;;;;;;;;56.50;43.25;;;;;6.91;71.26;102921.19;5059857;28;61476;-63
2021/12/17 03:07:09;;;;;;;;;52.50;38.50;;;;;6.90;71.33;102913.44;5078796;28;45440;-62
2021/12/17 03:12:08;;;;;;;;;51.00;40.00;;;;;6.84;71.26;102914.50;5078505;28;45293;-62
2021/12/17 03:14:41;;;;;;;;;55.75;40.75;;;;;6.82;71.31;102905.88;5060806;28;45407;-62
2021/12/17 03:17:10;;;;;;;;;48.00;39.75;;;;;6.81;71.25;102909.38;5078692;28;45370;-62
2021/12/17 03:25:03;;;;;;;;;52.25;40.00;;;;;6.77;71.14;102902.56;5078103;28;46021;-63
2021/12/17 03:27:28;;;;;;;;;55.00;40.50;;;;;6.76;71.68;102906.91;5060326;28;45306;-62
2021/12/17 03:29:53;;;;;;;;;50.50;38.50;;;;;6.76;71.69;102906.06;5077519;28;67924;-63
2021/12/17 03:32:19;;;;;;;;;48.50;37.00;;;;;6.75;71.74;102893.91;5077192;28;74510;-63
2021/12/17 03:34:44;;;;;;;;;47.00;39.50;;;;;6.75;72.11;102894.75;5077455;28;63674;-64
2021/12/17 03:37:10;;;;;;;;;51.50;38.00;;;;;6.76;72.16;102891.22;5078361;28;45529;-62
2021/12/17 03:39:37;;;;;;;;;46.50;36.75;;;;;6.78;72.35;102904.25;5078176;28;45216;-62
2021/12/17 03:42:06;;;;;;;;;47.75;37.50;;;;;6.81;72.18;102904.16;5060191;28;46483;-62
2021/12/17 03:44:32;;;;;;;;;57.00;41.00;;;;;6.82;72.36;102892.81;5060336;28;45450;-62
2021/12/17 03:46:57;;;;;;;;;47.50;38.75;;;;;6.85;72.30;102900.53;5078062;28;45429;-63
2021/12/17 03:49:23;;;;;;;;;47.50;37.75;;;;;6.87;72.28;102897.84;5078053;28;45505;-64
2021/12/17 03:51:53;;;;;;;;;49.25;38.25;;;;;6.90;72.25;102903.81;5059710;28;45450;-63
2021/12/17 03:54:18;;;;;;;;;51.25;40.00;;;;;6.93;72.26;102903.72;5078057;28;45765;-63
2021/12/17 03:56:44;;;;;;;;;49.00;38.25;;;;;6.93;72.38;102901.09;5059866;28;45378;-64
2021/12/17 03:59:10;;;;;;;;;50.25;41.00;;;;;6.97;72.32;102905.31;5059150;28;45514;-62
2021/12/17 04:01:39;;;;;;;;;50.00;40.00;;;;;7.00;72.32;102911.34;5077796;28;46167;-62
2021/12/17 04:04:04;;;;;;;;;52.00;40.00;;;;;7.03;72.07;102903.41;5077674;28;45923;-62
2021/12/17 04:06:30;;;;;;;;;49.50;38.00;;;;;7.05;72.22;102902.44;5059788;28;45478;-62
2021/12/17 04:08:55;;;;;;;;;45.25;36.25;;;;;7.07;72.23;102899.75;5076838;28;67423;-64
2021/12/17 04:11:21;;;;;;;;;50.50;40.00;;;;;7.09;72.17;102898.81;5077497;28;45464;-62
2021/12/17 04:13:53;;;;;;;;;47.00;38.00;;;;;7.11;72.17;102898.75;5077703;28;45386;-63
2021/12/17 04:16:23;;;;;;;;;42.00;36.25;;;;;7.15;72.32;102894.28;5060678;28;45331;-62
2021/12/17 04:18:48;;;;;;;;;47.75;36.00;;;;;7.18;72.18;102892.41;5076842;28;45539;-63
2021/12/17 04:21:14;;;;;;;;;51.75;38.50;;;;;7.19;72.05;102901.94;5076638;28;67998;-62
2021/12/17 04:23:43;;;;;;;;;53.00;38.50;;;;;7.22;72.27;102894.00;5059565;28;45282;-62
2021/12/17 04:26:09;;;;;;;;;51.25;41.00;;;;;7.23;72.15;102893.09;5076475;28;45430;-62
2021/12/17 04:28:40;;;;;;;;;48.75;37.00;;;;;7.26;72.32;102890.34;5077418;28;45586;-64
2021/12/17 04:31:06;;;;;;;;;44.25;37.00;;;;;7.28;72.08;102882.44;5076452;28;46584;-60
2021/12/17 04:33:31;;;;;;;;;53.00;41.00;;;;;7.30;72.17;102882.41;5076387;28;62969;-62
2021/12/17 04:35:57;;;;;;;;;47.50;37.50;;;;;7.31;72.12;102882.34;5077213;28;45422;-64
2021/12/17 04:38:25;;;;;;;;;48.25;38.00;;;;;7.33;72.19;102880.50;5077110;28;45319;-64
2021/12/17 04:40:52;;;;;;;;;45.75;37.00;;;;;7.34;72.10;102876.16;5059511;28;46218;-62
2021/12/17 04:43:35;;;;;;;;;49.00;36.75;;;;;7.35;72.17;102875.25;5059175;28;45276;-62
2021/12/17 04:46:15;;;;;;;;;52.50;37.00;;;;;7.37;72.12;102881.28;5077136;28;45295;-64
2021/12/17 04:59:36;;;;;;;;;42.75;35.25;;;;;7.41;72.37;102883.69;5077193;28;45303;-63
2021/12/17 05:02:02;;;;;;;;;48.25;37.75;;;;;7.43;72.32;102881.88;5076648;28;46356;-63
2021/12/17 05:04:28;;;;;;;;;45.50;38.75;;;;;7.47;72.29;102882.59;5058730;28;45411;-62
2021/12/17 05:06:53;;;;;;;;;50.75;36.25;;;;;7.48;72.16;102873.84;5076898;28;45395;-63
2021/12/17 05:09:34;;;;;;;;;46.50;38.00;;;;;7.47;72.32;102874.75;5076307;28;58198;-62
2021/12/17 05:18:15;;;;;;;;;46.00;37.50;;;;;7.49;72.32;102877.34;5076830;28;45544;-62
2021/12/17 05:20:44;;;;;;;;;46.50;37.50;;;;;7.51;72.61;102881.59;5061514;28;45393;-62
2021/12/17 05:22:59;;;;;;;;;42.75;33.75;;;;;7.54;72.63;102885.88;5076224;28;46329;-62
2021/12/17 05:25:26;;;;;;;;;44.75;36.50;;;;;7.57;72.64;102890.97;5076303;27;45805;-63
2021/12/17 05:27:54;;;;;;;;;39.00;33.00;;;;;7.60;72.77;102890.00;5076632;28;45300;-62
2021/12/17 05:30:19;;;;;;;;;42.75;34.75;;;;;7.62;72.88;102891.66;5076735;28;45442;-63
2021/12/17 05:32:44;;;;;;;;;44.25;35.00;;;;;7.65;72.84;102891.53;5076438;28;45271;-64
2021/12/17 05:35:10;;;;;;;;;44.25;34.00;;;;;7.69;72.79;102887.03;5057065;28;71032;-62
2021/12/17 05:37:35;;;;;;;;;45.50;36.00;;;;;7.74;72.95;102885.09;5075702;28;62631;-61
2021/12/17 05:40:01;;;;;;;;;38.50;33.50;;;;;7.78;72.73;102885.81;5044861;28;45321;-62
2021/12/17 05:42:26;;;;;;;;;41.75;37.00;;;;;7.80;72.65;102881.38;5079767;28;49102;-62
2021/12/17 05:44:56;;;;;;;;;40.75;34.00;;;;;7.83;72.76;102883.88;5078912;28;69614;-61
2021/12/17 05:47:21;;;;;;;;;40.50;34.50;;;;;7.84;72.77;102881.22;5080045;28;45366;-62
2021/12/17 05:49:47;;;;;;;;;49.75;36.50;;;;;7.86;72.82;102884.63;5060941;28;66071;-63
2021/12/17 05:52:12;;;;;;;;;43.75;35.00;;;;;7.92;72.75;102882.69;5079730;28;45320;-62
2021/12/17 05:54:38;;;;;;;;;42.00;34.75;;;;;7.93;72.76;102881.78;5078782;28;69804;-62
2021/12/17 05:57:03;;;;;;;;;41.75;35.25;;;;;7.97;72.83;102880.69;5028358;28;45255;-62
2021/12/17 05:59:34;;;;;;;;;38.50;33.25;;;;;8.00;72.86;102888.44;5079729;28;45324;-62
2021/12/17 06:02:01;;;;;;;;;36.75;32.00;;;;;8.03;72.86;102880.47;5079723;28;45396;-63
2021/12/17 06:04:26;;;;;;;;;35.50;32.00;;;;;8.06;72.77;102877.72;5061562;28;45743;-62
2021/12/17 06:06:51;;;;;;;;;30.00;27.00;;;;;8.10;72.59;102889.78;5060601;28;67921;-61
2021/12/17 06:09:17;;;;;;;;;34.75;33.00;;;;;8.12;72.78;102889.75;5060679;28;67906;-62
2021/12/17 06:11:42;;;;;;;;;39.50;33.00;;;;;8.15;72.46;102887.84;5078766;28;62995;-62
2021/12/17 06:14:08;;;;;;;;;31.50;28.00;;;;;8.16;72.67;102888.69;5060315;28;67601;-63
2021/12/17 06:16:34;;;;;;;;;43.00;33.00;;;;;8.19;72.63;102885.97;5061041;28;45338;-64
2021/12/17 06:19:00;;;;;;;;;34.50;30.00;;;;;8.22;72.59;102891.03;5077636;28;45348;-62
2021/12/17 06:21:26;;;;;;;;;32.75;27.00;;;;;8.25;72.61;102896.16;5079286;28;46327;-63
2021/12/17 06:23:51;;;;;;;;;44.25;31.75;;;;;8.27;72.41;102896.94;5077996;28;69168;-61
2021/12/17 06:26:17;;;;;;;;;36.00;28.00;;;;;8.30;72.65;102888.13;5060275;28;45433;-62
2021/12/17 06:28:42;;;;;;;;;36.00;29.25;;;;;8.33;72.41;102893.25;5079294;28;45447;-63
2021/12/17 06:31:07;;;;;;;;;33.50;27.00;;;;;8.33;72.51;102893.25;5078019;28;71920;-64
2021/12/17 06:33:33;;;;;;;;;31.50;27.00;;;;;8.35;72.52;102895.78;5078251;28;65771;-62
2021/12/17 06:35:58;;;;;;;;;33.00;27.75;;;;;8.37;72.59;102902.69;5079048;28;45453;-61
2021/12/17 06:38:24;;;;;;;;;32.25;26.50;;;;;8.39;72.68;102895.63;5078292;28;58415;-63
2021/12/17 06:40:53;;;;;;;;;32.25;29.75;;;;;8.41;72.51;102896.41;5078075;27;46100;-62
2021/12/17 06:43:18;;;;;;;;;31.00;27.50;;;;;8.43;72.31;102893.72;5078754;27;45239;-61
2021/12/17 06:45:59;;;;;;;;;34.00;25.50;;;;;8.45;72.46;102892.75;5060972;28;45328;-62
2021/12/17 06:48:28;;;;;;;;;35.00;28.75;;;;;8.50;72.41;102896.94;5078781;28;45386;-62
2021/12/17 07:17:57;;;;;;;;;35.00;29.50;;;;;8.73;72.54;102917.81;5078477;28;45229;-62
2021/12/17 07:23:15;;;;;;;;;29.25;24.75;;;;;8.78;72.57;102909.72;5078220;28;45908;-62
2021/12/17 07:33:59;;;;;;;;;35.75;28.25;;;;;8.86;72.69;102919.91;5062198;28;45344;-62
2021/12/17 07:36:24;;;;;;;;;27.00;24.25;;;;;8.85;72.34;102919.03;5078124;28;45367;-63
2021/12/17 07:38:50;;;;;;;;;27.50;22.75;;;;;8.88;72.60;102920.69;5060109;28;45801;-62
2021/12/17 07:41:16;;;;;;;;;31.00;26.00;;;;;8.89;72.61;102915.38;5078404;28;45517;-63
2021/12/17 07:43:52;;;;;;;;;30.75;28.50;;;;;8.89;72.71;102907.50;5078041;28;45261;-62
2021/12/17 07:46:18;;;;;;;;;27.75;22.75;;;;;8.92;72.33;102909.16;5061540;28;45266;-62
2021/12/17 07:48:44;;;;;;;;;27.75;24.50;;;;;8.95;72.37;102914.28;5059514;28;55030;-63
2021/12/17 07:51:11;;;;;;;;;31.00;26.00;;;;;8.95;72.46;102911.66;5077071;28;70403;-63
2021/12/17 07:53:36;;;;;;;;;34.75;26.50;;;;;8.97;72.55;102909.81;5077766;27;45608;-63
2021/12/17 07:56:03;;;;;;;;;29.50;25.50;;;;;8.98;72.23;102916.78;5058808;28;71290;-62
2021/12/17 07:58:29;;;;;;;;;32.75;28.25;;;;;9.00;72.54;102914.06;5077949;28;45295;-62
2021/12/17 08:00:54;;;;;;;;;31.75;27.25;;;;;9.00;72.28;102901.81;5076855;28;45525;-63
2021/12/17 08:03:20;;;;;;;;;29.50;25.75;;;;;9.02;72.46;102913.06;5077540;28;47892;-63
2021/12/17 08:05:45;;;;;;;;;33.75;28.75;;;;;9.02;72.36;102914.84;5077378;28;45225;-62
2021/12/17 08:08:11;;;;;;;;;33.00;30.25;;;;;9.04;72.48;102908.59;5077875;27;45249;-62
2021/12/17 08:10:36;;;;;;;;;35.00;30.50;;;;;9.05;72.18;102920.78;5059471;28;45297;-63
2021/12/17 08:13:02;;;;;;;;;36.25;27.00;;;;;9.07;72.37;102912.88;5059133;28;46181;-62
2021/12/17 08:15:35;;;;;;;;;35.00;30.00;;;;;9.10;72.22;102927.63;5077316;28;45256;-64
2021/12/17 08:18:31;;;;;;;;;29.75;29.00;;;;;9.11;72.03;102926.69;5077115;28;45202;-62
2021/12/17 08:24:18;;;;;;;;;34.75;27.50;;;;;9.12;72.17;102936.28;5077289;28;45778;-62
2021/12/17 08:31:26;;;;;;;;;36.75;30.75;;;;;9.16;72.00;102933.47;5059459;28;45449;-62
2021/12/17 08:33:52;;;;;;;;;36.25;29.50;;;;;9.16;72.04;102936.09;5076991;28;51471;-63
2021/12/17 08:36:18;;;;;;;;;38.00;27.75;;;;;9.17;71.85;102934.31;5070614;27;67707;-62
2021/12/17 08:38:43;;;;;;;;;31.00;29.75;;;;;9.18;72.10;102925.50;5070416;27;45603;-62
2021/12/17 08:41:09;;;;;;;;;31.00;26.00;;;;;9.19;72.24;102924.59;5066718;27;45637;-63
2021/12/17 08:43:35;;;;;;;;;31.25;27.50;;;;;9.20;71.99;102921.06;5067151;27;45488;-62
2021/12/17 08:46:00;;;;;;;;;35.25;29.00;;;;;9.21;71.89;102925.38;5065552;27;45458;-63
2021/12/17 08:48:25;;;;;;;;;31.50;28.00;;;;;9.23;72.16;102935.81;5063375;27;45703;-63
2021/12/17 08:50:51;;;;;;;;;35.25;29.25;;;;;9.22;71.81;102927.09;5059440;27;57291;-63
2021/12/17 08:53:16;;;;;;;;;37.75;27.50;;;;;9.24;72.06;102932.28;5062316;27;68977;-61
2021/12/17 08:55:42;;;;;;;;;39.25;30.50;;;;;9.25;72.15;102934.81;5064603;27;64953;-63
2021/12/17 08:58:12;;;;;;;;;30.75;25.50;;;;;9.27;71.96;102932.97;5069000;27;46382;-61
2021/12/17 09:00:37;;;;;;;;;36.25;28.00;;;;;9.27;71.97;102927.72;5067659;27;45271;-62
2021/12/17 09:03:03;;;;;;;;;33.50;28.00;;;;;9.28;71.99;102933.81;5066320;27;71305;-63
2021/12/17 09:05:28;;;;;;;;;36.00;29.00;;;;;9.30;71.94;102939.84;5064386;27;62234;-63
2021/12/17 09:07:53;;;;;;;;;33.75;30.00;;;;;9.31;71.92;102945.03;5072695;27;64257;-63
2021/12/17 09:10:22;;;;;;;;;35.50;31.50;;;;;9.32;71.93;102945.88;5067912;27;65561;-63
2021/12/17 09:12:48;;;;;;;;;38.25;33.75;;;;;9.33;71.62;102943.19;5061046;27;46216;-62
2021/12/17 09:15:13;;;;;;;;;38.00;31.25;;;;;9.35;71.82;102945.75;5049235;27;49774;-62
2021/12/17 09:17:39;;;;;;;;;45.75;32.50;;;;;9.36;71.96;102942.19;5065782;27;61907;-62
2021/12/17 09:20:06;;;;;;;;;33.75;31.25;;;;;9.38;71.89;102950.84;5061519;27;45572;-63
2021/12/17 09:22:32;;;;;;;;;31.25;30.50;;;;;9.37;71.94;102951.78;5063339;27;45551;-62
2021/12/17 09:24:57;;;;;;;;;33.25;31.00;;;;;9.39;71.86;102956.97;5051461;27;45758;-61
2021/12/17 09:27:23;;;;;;;;;35.50;27.25;;;;;9.39;72.06;102960.44;5063521;27;55829;-62
2021/12/17 09:29:48;;;;;;;;;31.75;27.75;;;;;9.41;71.87;102960.38;5052830;27;65740;-62
2021/12/17 09:32:13;;;;;;;;;31.75;27.25;;;;;9.41;71.77;102955.97;5063813;27;72347;-62
2021/12/17 09:34:39;;;;;;;;;35.25;27.00;;;;;9.43;71.77;102966.41;5053294;27;67705;-62
2021/12/17 09:37:05;;;;;;;;;35.25;27.50;;;;;9.45;71.77;102968.03;5066287;27;65801;-63
2021/12/17 09:39:31;;;;;;;;;32.50;27.75;;;;;9.47;71.68;102970.59;5064678;27;45689;-62
2021/12/17 09:41:56;;;;;;;;;30.25;29.25;;;;;9.48;71.71;102960.03;5065455;27;46962;-63
2021/12/17 09:44:21;;;;;;;;;34.75;28.50;;;;;9.51;71.80;102974.81;5064551;27;45364;-62
2021/12/17 09:46:47;;;;;;;;;38.00;32.25;;;;;9.50;71.54;102970.47;5066894;27;45493;-62
2021/12/17 09:49:14;;;;;;;;;35.00;28.25;;;;;9.52;71.81;102973.00;5063056;27;45867;-62
2021/12/17 09:51:39;;;;;;;;;38.25;30.00;;;;;9.54;71.87;102974.63;5050951;28;50846;-63
2021/12/17 09:54:04;;;;;;;;;32.00;28.50;;;;;9.55;71.91;102973.72;5064791;27;45362;-64
2021/12/17 09:56:30;;;;;;;;;29.25;25.50;;;;;9.56;71.74;102980.66;5059782;27;49350;-61
2021/12/17 09:58:55;;;;;;;;;29.50;28.25;;;;;9.57;71.89;102978.91;5064252;27;45667;-63
2021/12/17 10:01:21;;;;;;;;;33.75;28.00;;;;;9.58;71.47;102978.81;5056509;27;46345;-61
2021/12/17 10:03:46;;;;;;;;;33.25;29.00;;;;;9.60;71.51;102976.16;5052860;27;45428;-62
2021/12/17 10:06:22;;;;;;;;;35.50;31.00;;;;;9.61;71.58;102983.94;5074100;27;45509;-62
2021/12/17 10:08:48;;;;;;;;;32.75;28.25;;;;;9.62;71.70;102972.50;5054705;27;45464;-62
2021/12/17 10:11:14;;;;;;;;;39.50;30.50;;;;;9.64;71.81;102969.84;5072053;27;45539;-61
2021/12/17 10:13:39;;;;;;;;;34.00;28.50;;;;;9.64;71.56;102970.69;5037861;27;45540;-63
2021/12/17 10:16:06;;;;;;;;;34.75;27.75;;;;;9.65;71.41;102974.16;5066386;27;64973;-63
2021/12/17 10:18:31;;;;;;;;;36.50;32.00;;;;;9.68;71.35;102973.16;5046549;27;45406;-62
2021/12/17 10:21:02;;;;;;;;;37.67;31.67;;;;;9.68;71.11;102973.16;5070566;27;45438;-62
2021/12/17 10:23:28;;;;;;;;;33.75;29.00;;;;;9.68;71.04;102968.78;5076695;27;45493;-62
2021/12/17 10:25:54;;;;;;;;;38.25;29.50;;;;;9.69;70.87;102961.75;5072656;27;45588;-61
2021/12/17 10:28:19;;;;;;;;;33.00;30.75;;;;;9.69;70.96;102957.34;5081476;27;45630;-63
2021/12/17 10:30:47;;;;;;;;;33.50;29.75;;;;;9.71;70.71;102957.28;5067291;27;71815;-62
2021/12/17 10:33:20;;;;;;;;;37.25;32.50;;;;;9.71;70.95;102957.28;5058091;27;45493;-62
2021/12/17 10:35:50;;;;;;;;;28.25;23.50;;;;;9.72;70.77;102951.97;5067405;27;45419;-63
2021/12/17 10:38:18;;;;;;;;;38.75;30.50;;;;;9.74;71.13;102946.63;5071764;27;45276;-62
2021/12/17 10:40:51;;;;;;;;;33.75;30.25;;;;;9.75;70.68;102940.47;5024699;28;45408;-63
2021/12/17 10:43:27;;;;;;;;;34.50;31.50;;;;;9.77;70.94;102946.50;5058600;27;45576;-63
2021/12/17 10:46:04;;;;;;;;;36.50;32.50;;;;;9.78;70.89;102946.44;5050373;27;45487;-62
2021/12/17 10:48:37;;;;;;;;;34.25;29.25;;;;;9.80;70.78;102925.34;5090384;27;45346;-62
2021/12/17 10:51:12;;;;;;;;;39.50;32.50;;;;;9.83;70.63;102924.34;5057533;27;46481;-64
2021/12/17 10:53:38;;;;;;;;;36.25;30.00;;;;;9.86;70.73;102924.19;5075428;27;45355;-61
2021/12/17 10:56:03;;;;;;;;;39.25;31.25;;;;;9.88;70.67;102917.09;5054641;27;67756;-62
2021/12/17 10:58:29;;;;;;;;;35.75;30.25;;;;;9.90;70.74;102910.88;5058449;27;62388;-63
2021/12/17 11:00:54;;;;;;;;;41.50;33.25;;;;;9.93;70.48;102915.09;5068947;27;46029;-61
2021/12/17 11:03:19;;;;;;;;;34.33;32.00;;;;;9.97;70.73;102913.19;5063188;27;45466;-62
2021/12/17 11:05:45;;;;;;;;;34.75;32.00;;;;;9.98;70.45;102902.59;5058334;27;62719;-62
2021/12/17 11:08:39;;;;;;;;;39.00;33.25;;;;;10.03;70.31;102902.41;5069114;27;45166;-63
2021/12/17 11:11:10;;;;;;;;;36.50;30.75;;;;;10.05;70.24;102901.41;5062240;27;69052;-63
2021/12/17 11:13:37;;;;;;;;;36.75;32.00;;;;;10.07;70.25;102893.44;5064022;27;45970;-61
2021/12/17 11:16:02;;;;;;;;;37.25;31.00;;;;;10.09;69.69;102896.81;5062403;27;45428;-63
2021/12/17 11:18:28;;;;;;;;;33.75;30.50;;;;;10.10;69.23;102894.13;5062334;27;45558;-62
2021/12/17 11:20:55;;;;;;;;;39.50;33.75;;;;;10.11;69.22;102889.72;5064819;27;45552;-63
2021/12/17 11:23:22;;;;;;;;;36.75;32.75;;;;;10.15;68.86;102893.06;5069007;27;45695;-62
2021/12/17 11:25:48;;;;;;;;;32.75;29.25;;;;;10.14;68.85;102896.63;5028388;28;45591;-62
2021/12/17 11:28:14;;;;;;;;;40.50;34.25;;;;;10.17;68.77;102892.06;5032799;28;45479;-62
2021/12/17 11:30:41;;;;;;;;;35.50;30.25;;;;;10.18;68.61;102878.00;5031487;28;50831;-61
2021/12/17 11:33:07;;;;;;;;;37.25;33.75;;;;;10.18;68.43;102871.91;5041877;28;45371;-62
2021/12/17 11:35:34;;;;;;;;;35.00;28.00;;;;;10.19;68.35;102868.34;5030505;28;61654;-64
2021/12/17 11:38:06;;;;;;;;;51.00;42.25;;;;;10.19;68.80;102861.31;5031783;28;45637;-62
2021/12/17 11:40:40;;;;;;;;;38.00;32.25;;;;;10.21;68.63;102864.72;5018463;28;46165;-64
2021/12/17 11:43:37;;;;;;;;;40.75;30.50;;;;;10.23;68.54;102860.22;5037120;28;45755;-62
2021/12/17 11:46:08;;;;;;;;;32.25;27.75;;;;;10.27;68.11;102860.06;5060502;28;45594;-62
2021/12/17 11:48:34;;;;;;;;;37.75;31.75;;;;;10.27;67.65;102842.56;5040836;28;45524;-63
2021/12/17 11:51:13;;;;;;;;;38.25;32.00;;;;;10.29;67.71;102855.59;5044240;28;45294;-63
2021/12/17 11:53:58;;;;;;;;;34.00;32.25;;;;;10.29;67.65;102847.72;5044048;28;46021;-61
2021/12/17 11:56:46;;;;;;;;;33.00;27.50;;;;;10.31;67.09;102851.97;5047105;28;45607;-62
2021/12/17 11:59:27;;;;;;;;;36.25;32.00;;;;;10.33;66.73;102852.72;5053003;28;45321;-62
2021/12/17 12:02:02;;;;;;;;;31.75;29.75;;;;;10.37;66.47;102851.66;5048924;28;46399;-63
2021/12/17 12:04:33;;;;;;;;;29.00;27.50;;;;;10.39;65.84;102841.09;5042700;28;45874;-63
2021/12/17 12:07:23;;;;;;;;;25.75;24.00;;;;;10.41;65.29;102839.25;5042434;28;45360;-63
2021/12/17 12:09:58;;;;;;;;;29.25;25.50;;;;;10.43;65.43;102842.66;5041998;28;45396;-61
2021/12/17 12:12:24;;;;;;;;;37.00;32.00;;;;;10.45;65.15;102838.16;5024301;28;46156;-60
2021/12/17 12:14:50;;;;;;;;;25.00;23.75;;;;;10.47;64.87;102831.06;5050566;28;46074;-61
2021/12/17 12:17:53;;;;;;;;;23.75;22.50;;;;;10.51;64.46;102829.97;5049531;28;45522;-62
2021/12/17 12:20:43;;;;;;;;;27.75;23.00;;;;;10.54;64.64;102829.81;5047568;28;45166;-63
2021/12/17 12:23:28;;;;;;;;;25.75;23.75;;;;;10.58;64.80;102829.66;5049028;28;46384;-63
2021/12/17 12:26:07;;;;;;;;;22.00;20.25;;;;;10.61;64.76;102824.22;5056158;27;45501;-62
2021/12/17 12:28:47;;;;;;;;;22.50;19.50;;;;;10.64;64.64;102824.06;5067813;27;45204;-62
2021/12/17 12:31:25;;;;;;;;;25.25;24.00;;;;;10.67;65.08;102829.16;5067604;27;45419;-61
2021/12/17 12:36:57;;;;;;;;;26.50;21.50;;;;;10.75;64.51;102815.63;5070974;27;45439;-63
2021/12/17 12:39:50;;;;;;;;;27.00;21.50;;;;;10.77;64.26;102814.59;5053291;27;45602;-63
2021/12/17 12:42:23;;;;;;;;;25.25;21.75;;;;;10.79;64.51;102812.75;5064661;27;45179;-63
2021/12/17 12:44:49;;;;;;;;;24.50;23.00;;;;;10.83;63.96;102814.28;5056052;27;47036;-63
2021/12/17 12:47:20;;;;;;;;;25.33;22.67;;;;;10.84;64.07;102818.59;5081793;27;45407;-62
2021/12/17 12:49:48;;;;;;;;;21.00;20.50;;;;;10.87;64.24;102816.75;5083861;27;45419;-62
2021/12/17 12:52:31;;;;;;;;;21.00;20.00;;;;;10.89;63.77;102820.97;5069871;27;45546;-64
2021/12/17 12:55:00;;;;;;;;;20.25;17.75;;;;;10.90;63.60;102816.59;5079908;27;46214;-62
2021/12/17 12:57:28;;;;;;;;;23.75;18.00;;;;;10.92;63.58;102822.63;5077507;27;45978;-62
2021/12/17 12:59:54;;;;;;;;;22.50;18.75;;;;;10.93;63.04;102816.41;5055221;28;45241;-64
2021/12/17 13:02:20;;;;;;;;;23.50;22.50;;;;;10.94;63.20;102810.22;5079327;27;45596;-62
2021/12/17 13:04:46;;;;;;;;;25.00;18.75;;;;;10.94;63.09;102816.31;5072766;27;45481;-62
2021/12/17 13:07:14;;;;;;;;;21.25;18.25;;;;;10.94;62.65;102808.44;5068588;27;45484;-64
2021/12/17 13:09:43;;;;;;;;;23.00;21.50;;;;;10.94;62.48;102813.69;5068757;27;57039;-63
2021/12/17 13:12:09;;;;;;;;;21.25;21.00;;;;;10.93;62.45;102819.06;5048438;28;45577;-63
2021/12/17 13:14:41;;;;;;;;;26.75;22.75;;;;;10.91;62.32;102807.75;5066128;27;45247;-62
2021/12/17 13:17:29;;;;;;;;;22.50;19.50;;;;;10.88;62.31;102814.03;5053740;27;45394;-62
2021/12/17 13:22:59;;;;;;;;;23.00;20.50;;;;;10.89;62.03;102813.09;5047991;27;45236;-63
2021/12/17 13:25:28;;;;;;;;;19.00;18.50;;;;;10.89;62.38;102807.81;5068897;27;45380;-63
2021/12/17 13:27:54;;;;;;;;;19.75;19.25;;;;;10.89;62.58;102805.19;5046383;27;45419;-63
2021/12/17 13:30:26;;;;;;;;;26.50;22.75;;;;;10.89;62.58;102801.72;5068882;27;45458;-64
2021/12/17 13:32:52;;;;;;;;;21.50;20.75;;;;;10.90;62.97;102806.06;5043867;27;45458;-62
2021/12/17 13:35:17;;;;;;;;;21.25;19.50;;;;;10.90;62.73;102796.38;5046362;27;46071;-62
2021/12/17 13:37:43;;;;;;;;;13.00;12.50;;;;;10.92;63.00;102796.31;5065528;27;45503;-61
2021/12/17 13:40:10;;;;;;;;;22.50;19.25;;;;;10.91;62.91;102798.06;5066514;27;60740;-63
2021/12/17 13:42:39;;;;;;;;;19.75;18.75;;;;;10.93;63.11;102792.75;5040798;27;45537;-63
2021/12/17 13:45:13;;;;;;;;;25.25;21.00;;;;;10.96;63.07;102800.47;5066934;27;45551;-63
2021/12/17 13:47:48;;;;;;;;;19.75;19.50;;;;;10.97;63.13;102787.22;5049987;27;45572;-64
2021/12/17 13:50:21;;;;;;;;;22.25;20.25;;;;;10.98;62.86;102788.09;5055576;27;45514;-62
2021/12/17 13:52:48;;;;;;;;;23.25;21.00;;;;;10.97;63.17;102794.28;5071917;27;45562;-62
2021/12/17 13:55:16;;;;;;;;;23.00;22.25;;;;;10.95;62.99;102791.72;5066917;27;45495;-62
2021/12/17 13:57:42;;;;;;;;;25.00;20.25;;;;;10.95;63.05;102788.25;5037479;27;45835;-62
2021/12/17 14:00:25;;;;;;;;;22.50;20.75;;;;;10.93;62.90;102785.69;5063326;27;46314;-62
2021/12/17 14:02:54;;;;;;;;;17.00;15.25;;;;;10.91;62.99;102790.19;5072325;27;45907;-62
2021/12/17 14:05:39;;;;;;;;;26.25;21.50;;;;;10.89;62.74;102785.94;5072362;27;45525;-62
2021/12/17 14:08:07;;;;;;;;;21.00;18.25;;;;;10.86;62.40;102780.84;5075552;27;46083;-63
2021/12/17 14:10:35;;;;;;;;;18.50;16.00;;;;;10.83;63.17;102774.81;5054847;27;45455;-62
2021/12/17 14:13:01;;;;;;;;;24.00;18.50;;;;;10.81;62.91;102770.59;5056298;27;45587;-62